17°C
Porth, Newquay, Cornwall. UK  Tell A Friend
 Ad **Ad
Updated27/06/2017 18:15 
 


Nearby METAR Reports From


Metar Station     Metar Station     Metar Station     Metar Station     Metar Station
EGHQ Newquay     EGDR Culdrose (navy)     EGDX ST Athan raf     EGDY Yeovitilton (navy)     EGFF Cardiff
EGHH Bournemouth     EGBB Birmingham     EGKA Shoreham-By-Sea     EGOP Pembry Sands     EGTE Exeter Airport
EGGD Bristol     EGHE Scilly     EGJA Alderney     EGJB Guernsey     EGJJ Jersey
France       LFRC Cherbourg/Mauper     LFRB Brest/Guipavas     LFRO Lannion/Servel        
More Metars Here                                
EGHQ - Newquay, United Kingdom
Updated: 27/06/2017 17:50
Mist, Mostly cloudy
Mist, Mostly cloudy
 Wind from W
Wind: W 10 mph , 17 km/h, 9 kts
Temperature: 15°C
Dew Point: 14°C
Humidity: 94%
Barometer: 1004 hPa
Summary: Mist
Clouds: Mostly Cloudy
Visibility: 3 miles , 5 km
Cloud details: Mostly Cloudy 30 m
2017/06/27 16:50 EGHQ 271650Z 26009KT 5000 BR BKN001 15/14 Q1004
EGDR - Culdrose (navy), United Kingdom
Updated: 27/06/2017 17:50
Light drizzle, Overcast
Light drizzle, Overcast
 Wind from SW
Wind: SW 7 mph , 11 km/h, 6 kts
Temperature: 16°C
Dew Point: 16°C
Humidity: 100%
Barometer: 1004 hPa
Summary: Light Drizzle
Clouds: Overcast
Visibility: 0 mile , 0 km
Cloud details: Mostly Cloudy 0 m
Overcast 30 m
2017/06/27 16:50 EGDR 271650Z 22006KT 0150 -DZ BKN000 OVC001 16/16 Q1004 RED
 
EGHC - Lands End, United Kingdom
Updated: 27/06/2017 17:50
Fog
Fog
 Wind from W
Wind: W 9 mph , 15 km/h, 8 kts
Temperature: 14°C
Dew Point: 14°C
Humidity: 100%
Barometer: 1004 hPa
Summary: Fog
Visibility: 0 mile , 0 km
2017/06/27 16:50 EGHC 271650Z 28008KT 0100 FG VV/// 14/14 Q1004
EGHE - Scilly Saint Mar, United Kingdom
Updated: 27/06/2017 17:50
Mostly Cloudy
Mostly Cloudy
 Wind from W
Wind: W 7 mph , 11 km/h, 6 kts
Temperature: 15°C
Dew Point: 15°C
Humidity: 100%
Barometer: 1004 hPa
Clouds: Mostly Cloudy
Visibility: 6 miles , 10 km
Cloud details: Few Clouds 213 m
Partly Cloudy 396 m
Mostly Cloudy 975 m
2017/06/27 16:50 EGHE 271650Z 27006KT 9999 FEW007 SCT013 BKN032 15/15 Q1004
 
EGTE - Exeter Airport, United Kingdom
Updated: 27/06/2017 17:50
Few Clouds
Few Clouds
 Wind from S
Wind: S 7 mph , 11 km/h, 6 kts
Temperature: 18°C
Dew Point: 14°C
Humidity: 78%
Barometer: 1003 hPa
Clouds: Few Clouds
Visibility: 6 miles , 10 km
Cloud details: Few Clouds 762 m
2017/06/27 16:50 EGTE 271650Z 18006KT 9999 FEW025 18/14 Q1003
EGOP - Pembry Sands, United Kingdom
Updated: 27/06/2017 17:50
Mostly Cloudy
Mostly Cloudy
 Wind from SSW
Wind: SSW 6 mph , 9 km/h, 5 kts
Temperature: 18°C
Dew Point: 14°C
Humidity: 78%
Barometer: 1003 hPa
Clouds: Mostly Cloudy
Visibility: 6 miles , 10 km
Cloud details: Mostly Cloudy 884 m
Mostly Cloudy 1006 m
2017/06/27 16:50 EGOP 271650Z AUTO 20005KT 9999 // BKN029/// BKN033/// 18/14 Q1003
 
EGDX - St Athan Raf, United Kingdom
Updated: 27/06/2017 17:50
Mostly Cloudy
Mostly Cloudy
 Wind from SSW
Wind: SSW 2 mph , 4 km/h, 2 kts
Temperature: 19°C
Dew Point: 14°C
Humidity: 73%
Barometer: 1003 hPa
Clouds: Mostly Cloudy
Visibility: 6 miles , 10 km
Cloud details: Few Clouds 1524 m
Mostly Cloudy 2743 m
2017/06/27 16:50 EGDX 271650Z AUTO 20002KT 9999 FEW050/// BKN090/// 19/14 Q1003
EGFF - Cardiff-Wales Ar, United Kingdom
Updated: 27/06/2017 17:50
Clear
Clear
 Wind from SSE
Wind: SSE 6 mph , 9 km/h, 5 kts
Temperature: 19°C
Dew Point: 14°C
Humidity: 73%
Barometer: 1003 hPa
Clouds: Clear
Visibility: 6 miles , 10 km
2017/06/27 16:50 EGFF 271650Z AUTO 15005KT 120V190 9999 NCD 19/14 Q1003
 
EGDY - Yeovilton (navy), United Kingdom
Updated: 27/06/2017 17:50
Light rain, Mostly cloudy
Light rain, Mostly cloudy
 Wind from W
Wind: W 6 mph , 9 km/h, 5 kts
Temperature: 18°C
Dew Point: 15°C
Humidity: 83%
Barometer: 1003 hPa
Summary: Light Rain
Clouds: Mostly Cloudy
Visibility: 6 miles , 10 km
Cloud details: Mostly Cloudy 701 m
Mostly Cloudy 1067 m
2017/06/27 16:50 EGDY 271650Z 28005KT 9999 -RA BKN023 BKN035 18/15 Q1003 WHT NOSIG
EGGD - Bristol/Lulsgate, United Kingdom
Updated: 27/06/2017 17:50
Overcast
Overcast
 Wind from WNW
Wind: WNW 5 mph , 7 km/h, 4 kts
Temperature: 17°C
Dew Point: 14°C
Humidity: 83%
Barometer: 1004 hPa
Clouds: Overcast
Visibility: 6 miles , 10 km
Cloud details: Overcast 732 m
2017/06/27 16:50 EGGD 271650Z AUTO 29004KT 9999 OVC024 17/14 Q1004
 
EGBB - Birmingham Airpo, United Kingdom
Updated: 27/06/2017 17:50
Mostly Cloudy
Mostly Cloudy
 Wind from ESE
Wind: ESE 8 mph , 13 km/h, 7 kts
Temperature: 18°C
Dew Point: 13°C
Humidity: 73%
Barometer: 1004 hPa
Clouds: Mostly Cloudy
Visibility: 6 miles , 10 km
Cloud details: Partly Cloudy 610 m
Mostly Cloudy 975 m
2017/06/27 16:50 EGBB 271650Z 11007KT 080V150 9999 SCT020 BKN032 18/13 Q1004
EGHH - Bournemouth Airp, United Kingdom
Updated: 27/06/2017 17:50
Rain, Mostly cloudy
Rain, Mostly cloudy
 Wind from varies
Wind: varies 3 mph , 6 km/h, 3 kts
Temperature: 17°C
Dew Point: 15°C
Humidity: 88%
Barometer: 1003 hPa
Summary: Rain
Clouds: Mostly Cloudy
Visibility: 4 miles , 6 km
Cloud details: Few Clouds 244 m
Mostly Cloudy 792 m
2017/06/27 16:50 EGHH 271650Z VRB03KT 6000 RA FEW008 BKN026 17/15 Q1003
 
EGKA - Shoreham-By-Sea, United Kingdom
Updated: 27/06/2017 17:50
Light rain, Partly cloudy
Light rain, Partly cloudy
 Wind from NNW
Wind: NNW 3 mph , 6 km/h, 3 kts
Temperature: 17°C
Dew Point: 16°C
Humidity: 94%
Barometer: 1003 hPa
Summary: Light Rain
Clouds: Partly Cloudy
Visibility: 2 miles , 3 km
Cloud details: Partly Cloudy 183 m
2017/06/27 16:50 EGKA 271650Z 34003KT 2500 -RA SCT006 17/16 Q1003
EGJA - Alderney/Channel, United Kingdom
Updated: 27/06/2017 17:50
Mostly Cloudy
Mostly Cloudy
 Wind from varies
Wind: varies 3 mph , 6 km/h, 3 kts
Temperature: 14°C
Dew Point: 14°C
Humidity: 100%
Barometer: 1004 hPa
Clouds: Mostly Cloudy
Visibility: 6 miles , 10 km
Cloud details: Mostly Cloudy 122 m
2017/06/27 16:50 EGJA 271650Z VRB03KT 9999 BKN004 14/14 Q1004
 
EGJB - Guernsey Airport, United Kingdom
Updated: 27/06/2017 17:50
Mostly Cloudy
Mostly Cloudy
 Wind from W
Wind: W 8 mph , 13 km/h, 7 kts
Temperature: 15°C
Dew Point: 14°C
Humidity: 94%
Barometer: 1005 hPa
Clouds: Mostly Cloudy
Visibility: 6 miles , 10 km
Cloud details: Few Clouds 122 m
Mostly Cloudy 1372 m
2017/06/27 16:50 EGJB 271650Z 26007KT 9999 FEW004 BKN045 15/14 Q1005
EGJJ - Jersey Airport, United Kingdom
Updated: 27/06/2017 17:50
Mostly Cloudy
Mostly Cloudy
 Wind from WNW
Wind: WNW 7 mph , 11 km/h, 6 kts
Temperature: 14°C
Dew Point: 14°C
Humidity: 100%
Barometer: 1004 hPa
Clouds: Mostly Cloudy
Visibility: 6 miles , 10 km
Cloud details: Mostly Cloudy 183 m
2017/06/27 16:50 EGJJ 271650Z 30006KT 9999 BKN006 14/14 Q1004 BECMG SCT006
 
LFRC - Cherbourg/Mauper, France
Updated: 27/06/2017 18:00
Mist, Thunderstorm
Mist, Thunderstorm
 Wind from W
Wind: W 12 mph , 19 km/h, 10 kts
Temperature: 14°C
Dew Point: 14°C
Humidity: 100%
Barometer: 1004 hPa
Summary: Mist
Clouds: Thunderstorm
Visibility: 3 miles , 5 km
Cloud details: Overcast 61 m
2017/06/27 17:00 LFRC 271700Z AUTO 27010KT 5000 BR OVC002/// ///TCU 14/14 Q1004 TEMPO SHRA BKN007
LFRB - Brest/Guipavas, France
Updated: 27/06/2017 18:00
Drizzle, Overcast
Drizzle, Overcast
 Wind from SSW
Wind: SSW 9 mph , 15 km/h, 8 kts
Temperature: 17°C
Dew Point: 16°C
Humidity: 94%
Barometer: 1004 hPa
Summary: Drizzle
Clouds: Overcast
Visibility: 4 miles , 7 km
Cloud details: Mostly Cloudy 183 m
Overcast 1067 m
2017/06/27 17:00 LFRB 271700Z AUTO 20008KT 7000 DZ BKN006 OVC035 17/16 Q1004 TEMPO SHRA SCT008 BKN013TCU
 
LFRO - Lannion/Servel, France
Updated: 27/06/2017 18:00
Mostly Cloudy
Mostly Cloudy
 Wind from WNW
Wind: WNW 6 mph , 9 km/h, 5 kts
Temperature: 17°C
Dew Point: 13°C
Humidity: 77%
Barometer: 1004 hPa
Clouds: Mostly Cloudy
Visibility: 6 miles , 10 km
Cloud details: Mostly Cloudy 1280 m
Mostly Cloudy 2195 m
2017/06/27 17:00 LFRO 271700Z AUTO 30005KT 260V330 9999 BKN042 BKN072 17/13 Q1004 TEMPO 4000 SHRA SCT012CB

# Note Plymouth airport closed 23/12/2011

Metar, brief description

METAR is a format for reporting weather information. A METAR weather report is predominantly used by pilots in fulfillment of a part of a pre-flight weather briefing, and by meteorologists, who use aggregated METAR information to assist in weather forecasting.

Raw METAR is the most popular format in the world for the transmission of weather data. Each METAR report contains essential information about the current weather conditions: Temperature, Dew Point, Barometric Pressure, Wind Speed and Direction, Visibility, Clouds Cover, Current Weather (Rain, Thunderstorms, Hail, Snow and so on...), here is an example of a raw metar report for EGHQ (Newquay airport).
METAR not available